Time;durP1;ratioP1;P1;durP2;ratioP2;P2;SDS_P1;SDS_P2;PMS_P1;PMS_P2;Temp;Humidity;BMP_temperature;BMP_pressure;BME280_temperature;BME280_humidity;BME280_pressure;Samples;Min_cycle;Max_cycle;Signal;HPM_P1;HPM_P2
2023/01/14 00:00:39;;;;;;;0.23;0.23;;;6.70;99.90;;;;;;5035575;28;20183;-84
2023/01/14 00:03:04;;;;;;;0.30;0.30;;;6.80;99.90;;;;;;5035462;28;20190;-83
2023/01/14 00:05:30;;;;;;;0.30;0.30;;;6.80;99.90;;;;;;5027765;28;20249;-83
2023/01/14 00:07:55;;;;;;;0.30;0.30;;;6.80;99.90;;;;;;5048332;28;20190;-83
2023/01/14 00:10:21;;;;;;;0.30;0.30;;;6.80;99.90;;;;;;5039681;28;20190;-84
2023/01/14 00:12:46;;;;;;;0.30;0.30;;;6.90;99.90;;;;;;5049636;28;20217;-84
2023/01/14 00:15:12;;;;;;;0.30;0.30;;;6.80;99.90;;;;;;5023510;28;20207;-84
2023/01/14 00:17:38;;;;;;;0.30;0.30;;;6.80;99.90;;;;;;5038509;28;20206;-84
2023/01/14 00:20:04;;;;;;;0.20;0.20;;;6.90;99.90;;;;;;5036608;28;20187;-83
2023/01/14 00:22:30;;;;;;;0.20;0.20;;;6.80;99.90;;;;;;5040616;28;20503;-83
2023/01/14 00:24:55;;;;;;;0.23;0.23;;;6.80;99.90;;;;;;5044929;28;20441;-83
2023/01/14 00:27:21;;;;;;;0.20;0.20;;;6.80;99.90;;;;;;5036143;28;20174;-83
2023/01/14 00:29:46;;;;;;;0.20;0.20;;;6.90;99.90;;;;;;5033655;28;20187;-84
2023/01/14 00:32:12;;;;;;;0.30;0.30;;;6.90;99.90;;;;;;5037808;28;20195;-83
2023/01/14 00:34:38;;;;;;;0.30;0.30;;;6.90;99.90;;;;;;5036007;28;20670;-83
2023/01/14 00:37:04;;;;;;;0.20;0.20;;;7.00;99.90;;;;;;5011038;28;20650;-82
2023/01/14 00:39:30;;;;;;;0.30;0.30;;;6.90;99.90;;;;;;5033120;28;20465;-83
2023/01/14 00:41:55;;;;;;;0.30;0.30;;;6.90;99.90;;;;;;5033632;28;20197;-82
2023/01/14 00:44:21;;;;;;;0.20;0.20;;;6.90;99.90;;;;;;5034829;28;20519;-82
2023/01/14 00:46:48;;;;;;;0.20;0.20;;;6.90;99.90;;;;;;5043350;28;20269;-84
2023/01/14 00:49:16;;;;;;;0.30;0.30;;;6.90;99.90;;;;;;5037033;28;20820;-83
2023/01/14 00:51:42;;;;;;;0.20;0.20;;;6.90;99.90;;;;;;5044790;28;20477;-83
2023/01/14 00:54:07;;;;;;;0.20;0.20;;;6.90;99.90;;;;;;5035601;28;20556;-84
2023/01/14 00:56:33;;;;;;;0.30;0.30;;;6.90;99.90;;;;;;5039710;28;20222;-82
2023/01/14 00:58:59;;;;;;;0.20;0.20;;;6.90;99.90;;;;;;5043157;28;20193;-83
2023/01/14 01:01:24;;;;;;;0.20;0.20;;;6.90;99.90;;;;;;5046593;28;20178;-83
2023/01/14 01:03:52;;;;;;;0.20;0.20;;;6.90;99.90;;;;;;5039248;28;20186;-83
2023/01/14 01:06:19;;;;;;;0.30;0.30;;;6.90;99.90;;;;;;5045648;28;20333;-83
2023/01/14 01:08:46;;;;;;;0.20;0.20;;;6.90;99.90;;;;;;5046557;28;20934;-84
2023/01/14 01:11:12;;;;;;;0.30;0.30;;;6.90;99.90;;;;;;5048287;28;21155;-83
2023/01/14 01:13:38;;;;;;;0.20;0.20;;;6.90;99.90;;;;;;5040297;28;20432;-83
2023/01/14 01:16:12;;;;;;;0.20;0.20;;;6.90;99.90;;;;;;5045311;28;20229;-84
2023/01/14 01:18:38;;;;;;;0.30;0.30;;;6.90;99.90;;;;;;5040932;28;20982;-83
2023/01/14 01:21:09;;;;;;;0.20;0.20;;;6.90;99.90;;;;;;5039593;28;21000;-83
2023/01/14 01:23:40;;;;;;;0.20;0.20;;;6.90;99.90;;;;;;5021463;28;20481;-83
2023/01/14 01:26:06;;;;;;;0.30;0.30;;;6.80;99.90;;;;;;5046469;28;20441;-83
2023/01/14 01:28:32;;;;;;;0.20;0.20;;;6.90;99.90;;;;;;5036126;28;20502;-83
2023/01/14 01:31:06;;;;;;;0.20;0.20;;;6.80;99.90;;;;;;5046792;28;21168;-84
2023/01/14 01:33:31;;;;;;;0.23;0.23;;;6.70;99.90;;;;;;5034629;28;20187;-83
2023/01/14 01:35:59;;;;;;;0.30;0.30;;;6.70;99.90;;;;;;5045996;28;20490;-83
2023/01/14 01:38:24;;;;;;;0.23;0.23;;;6.70;99.90;;;;;;5038485;28;20717;-82
2023/01/14 01:40:50;;;;;;;0.20;0.20;;;6.70;99.90;;;;;;5042359;28;20441;-83
2023/01/14 01:43:16;;;;;;;0.30;0.30;;;6.80;99.90;;;;;;5043952;28;20191;-83
2023/01/14 01:45:47;;;;;;;0.20;0.20;;;6.70;99.90;;;;;;5048913;28;20674;-83
2023/01/14 01:48:17;;;;;;;0.30;0.30;;;6.70;99.90;;;;;;5048989;28;20413;-83
2023/01/14 01:50:46;;;;;;;0.30;0.30;;;6.80;99.90;;;;;;5046877;28;20429;-84
2023/01/14 01:53:12;;;;;;;0.20;0.20;;;6.80;99.90;;;;;;5028595;28;20528;-82
2023/01/14 01:55:40;;;;;;;0.30;0.30;;;6.80;99.90;;;;;;5040355;28;20968;-83
2023/01/14 01:58:08;;;;;;;0.30;0.30;;;6.80;99.90;;;;;;5048286;28;20445;-83
2023/01/14 02:00:33;;;;;;;0.20;0.20;;;6.80;99.90;;;;;;5050437;28;20482;-83
2023/01/14 02:03:02;;;;;;;0.20;0.20;;;6.80;99.90;;;;;;5046547;28;20456;-82
2023/01/14 02:05:28;;;;;;;0.30;0.30;;;6.70;99.90;;;;;;5051944;28;20226;-84
2023/01/14 02:07:57;;;;;;;0.30;0.30;;;6.60;99.90;;;;;;5051506;28;20445;-83
2023/01/14 02:10:31;;;;;;;0.30;0.30;;;6.60;99.90;;;;;;5049805;28;20195;-83
2023/01/14 02:13:39;;;;;;;0.20;0.20;;;6.60;99.90;;;;;;5048014;28;20460;-83
2023/01/14 02:16:31;;;;;;;0.30;0.30;;;6.70;99.90;;;;;;5041489;28;20496;-84
2023/01/14 02:19:07;;;;;;;0.20;0.20;;;6.70;99.90;;;;;;5047155;28;20475;-84
2023/01/14 02:21:36;;;;;;;0.30;0.30;;;6.70;99.90;;;;;;5049594;28;20452;-83
2023/01/14 02:24:41;;;;;;;0.30;0.30;;;6.70;99.90;;;;;;5049262;28;20453;-83
2023/01/14 02:27:41;;;;;;;0.30;0.30;;;6.70;99.90;;;;;;5023096;28;20448;-83
2023/01/14 02:30:16;;;;;;;0.20;0.20;;;6.70;99.90;;;;;;5043396;28;20476;-83
2023/01/14 02:33:03;;;;;;;0.30;0.30;;;6.70;99.90;;;;;;5031399;28;20498;-83
2023/01/14 02:35:41;;;;;;;0.20;0.20;;;6.70;99.90;;;;;;5030990;28;20502;-84
2023/01/14 02:38:20;;;;;;;0.30;0.30;;;6.70;99.90;;;;;;5045655;28;20540;-83
2023/01/14 02:41:02;;;;;;;0.20;0.20;;;6.70;99.90;;;;;;5047601;28;20583;-83
2023/01/14 02:44:12;;;;;;;0.20;0.20;;;6.70;99.90;;;;;;5046783;28;20452;-83
2023/01/14 02:46:56;;;;;;;0.20;0.20;;;6.80;99.90;;;;;;5033262;28;20467;-83
2023/01/14 02:49:32;;;;;;;0.30;0.30;;;6.80;99.90;;;;;;5039601;28;20480;-84
2023/01/14 02:51:58;;;;;;;0.30;0.30;;;6.70;99.90;;;;;;5052015;28;21024;-83
2023/01/14 02:54:25;;;;;;;0.30;0.30;;;6.70;99.90;;;;;;5045405;28;20818;-84
2023/01/14 02:56:55;;;;;;;0.30;0.30;;;6.80;99.90;;;;;;5034823;28;20988;-84
2023/01/14 02:59:42;;;;;;;0.30;0.30;;;6.70;99.90;;;;;;5047240;28;20477;-83
2023/01/14 03:02:20;;;;;;;0.30;0.30;;;6.70;99.90;;;;;;5029471;28;20449;-84
2023/01/14 03:05:01;;;;;;;0.30;0.30;;;6.80;99.90;;;;;;5050764;28;20457;-83
2023/01/14 03:07:46;;;;;;;0.30;0.30;;;6.70;99.90;;;;;;5034051;28;20571;-83
2023/01/14 03:10:18;;;;;;;0.30;0.30;;;6.80;99.90;;;;;;5014668;28;20895;-83
2023/01/14 03:12:48;;;;;;;0.30;0.30;;;6.80;99.90;;;;;;5045580;28;20535;-84
2023/01/14 03:15:38;;;;;;;0.30;0.30;;;6.80;99.90;;;;;;5047816;28;20751;-84
2023/01/14 03:18:25;;;;;;;0.30;0.30;;;6.80;99.90;;;;;;5048368;28;20453;-83
2023/01/14 03:21:01;;;;;;;0.20;0.20;;;6.80;99.90;;;;;;5046122;28;20450;-83
2023/01/14 03:23:30;;;;;;;0.27;0.27;;;6.90;99.90;;;;;;5049587;28;20441;-82
2023/01/14 03:25:57;;;;;;;0.30;0.30;;;6.90;99.90;;;;;;5043866;28;20552;-83
2023/01/14 03:28:31;;;;;;;0.30;0.30;;;6.80;99.90;;;;;;5030888;28;20433;-83
2023/01/14 03:31:04;;;;;;;0.30;0.30;;;6.90;99.90;;;;;;5039758;28;20452;-83
2023/01/14 03:33:35;;;;;;;0.30;0.30;;;6.90;99.90;;;;;;5013560;28;20423;-83
2023/01/14 03:36:03;;;;;;;0.27;0.27;;;6.90;99.90;;;;;;5048509;28;20480;-83
2023/01/14 03:38:52;;;;;;;0.30;0.30;;;6.80;99.90;;;;;;5047715;28;20453;-83
2023/01/14 03:44:19;;;;;;;0.20;0.20;;;6.80;99.90;;;;;;5046923;28;20567;-84
2023/01/14 03:46:44;;;;;;;0.30;0.30;;;6.80;99.90;;;;;;5046242;28;20523;-84
2023/01/14 03:49:10;;;;;;;0.30;0.30;;;6.80;99.90;;;;;;5030400;28;20853;-84
2023/01/14 03:51:47;;;;;;;0.30;0.30;;;6.80;99.90;;;;;;5049688;28;20194;-83
2023/01/14 03:54:29;;;;;;;0.30;0.30;;;6.90;99.90;;;;;;5028335;28;20187;-84
2023/01/14 03:57:12;;;;;;;0.20;0.20;;;6.90;99.90;;;;;;5047915;28;20484;-84
2023/01/14 03:59:57;;;;;;;0.30;0.30;;;6.90;99.90;;;;;;5043224;28;20536;-84
2023/01/14 04:02:24;;;;;;;0.20;0.20;;;6.90;99.90;;;;;;5046242;28;20463;-83
2023/01/14 04:04:51;;;;;;;0.30;0.30;;;6.90;99.90;;;;;;5045326;28;20976;-82
2023/01/14 04:07:17;;;;;;;0.30;0.30;;;6.90;99.90;;;;;;5047936;28;20559;-83
2023/01/14 04:09:42;;;;;;;0.20;0.20;;;6.90;99.90;;;;;;5046218;28;20425;-83
2023/01/14 04:12:08;;;;;;;0.30;0.30;;;6.80;99.90;;;;;;5048858;28;20721;-83
2023/01/14 04:17:17;;;;;;;0.30;0.30;;;6.90;99.90;;;;;;5045989;28;20661;-83
2023/01/14 04:19:43;;;;;;;0.27;0.27;;;6.80;99.90;;;;;;5043168;28;20528;-84
2023/01/14 04:22:08;;;;;;;0.30;0.30;;;6.70;99.90;;;;;;5046454;28;20282;-84
2023/01/14 04:24:34;;;;;;;0.20;0.20;;;6.60;99.90;;;;;;5044520;28;20183;-82
2023/01/14 04:26:59;;;;;;;0.30;0.30;;;6.60;99.90;;;;;;5034686;28;20253;-82
2023/01/14 04:29:25;;;;;;;0.23;0.23;;;6.50;99.90;;;;;;5049178;28;20213;-82
2023/01/14 04:31:50;;;;;;;0.30;0.30;;;6.50;99.90;;;;;;5048977;28;20266;-83
2023/01/14 04:34:16;;;;;;;0.27;0.27;;;6.40;99.90;;;;;;5030852;28;20203;-83
2023/01/14 04:36:41;;;;;;;0.30;0.30;;;6.40;99.90;;;;;;5029855;28;20226;-84
2023/01/14 04:39:07;;;;;;;0.20;0.20;;;6.40;99.90;;;;;;5047018;28;20194;-84
2023/01/14 04:44:16;;;;;;;0.30;0.30;;;6.40;99.90;;;;;;5036407;28;20274;-83
2023/01/14 04:46:42;;;;;;;0.30;0.30;;;6.50;99.90;;;;;;5028666;28;20515;-83
2023/01/14 04:49:08;;;;;;;0.30;0.30;;;6.50;99.90;;;;;;5032189;28;20178;-83
2023/01/14 04:51:33;;;;;;;0.30;0.30;;;6.50;99.90;;;;;;5046829;28;20899;-83
2023/01/14 04:53:58;;;;;;;0.20;0.20;;;6.50;99.90;;;;;;5028853;28;20635;-83
2023/01/14 04:56:24;;;;;;;0.30;0.30;;;6.50;99.90;;;;;;5048772;28;20268;-84
2023/01/14 04:58:49;;;;;;;0.23;0.23;;;6.50;99.90;;;;;;5045427;28;20732;-84
2023/01/14 05:01:15;;;;;;;0.20;0.20;;;6.50;99.90;;;;;;5041260;28;20197;-83
2023/01/14 05:03:40;;;;;;;0.20;0.20;;;6.50;99.90;;;;;;5040798;28;20671;-83
2023/01/14 05:06:06;;;;;;;0.30;0.30;;;6.50;99.90;;;;;;5040095;28;20230;-82
2023/01/14 05:08:32;;;;;;;0.30;0.30;;;6.50;99.90;;;;;;5029507;28;20281;-83
2023/01/14 05:10:57;;;;;;;0.30;0.30;;;6.50;99.90;;;;;;5030551;28;20448;-83
2023/01/14 05:13:23;;;;;;;0.30;0.30;;;6.50;99.90;;;;;;5049361;28;20233;-84
2023/01/14 05:15:48;;;;;;;0.20;0.20;;;6.50;99.90;;;;;;5039606;28;20222;-84
2023/01/14 05:18:15;;;;;;;0.30;0.30;;;6.40;99.90;;;;;;5042002;28;20530;-83
2023/01/14 05:20:43;;;;;;;0.23;0.23;;;6.50;99.90;;;;;;5026566;28;20202;-84
2023/01/14 05:23:14;;;;;;;0.20;0.20;;;6.50;99.90;;;;;;5040861;28;21225;-83
2023/01/14 05:25:40;;;;;;;0.20;0.20;;;6.50;99.90;;;;;;5031371;28;20433;-83
2023/01/14 05:28:09;;;;;;;0.30;0.30;;;6.50;99.90;;;;;;5047963;28;20447;-83
2023/01/14 05:30:35;;;;;;;0.20;0.20;;;6.40;99.90;;;;;;5048249;28;20703;-84
2023/01/14 05:33:00;;;;;;;0.30;0.30;;;6.50;99.90;;;;;;5030218;28;20520;-83
2023/01/14 05:35:26;;;;;;;0.20;0.20;;;6.40;99.90;;;;;;5035399;28;20300;-84
2023/01/14 05:37:52;;;;;;;0.20;0.20;;;6.50;99.90;;;;;;5048907;28;20260;-83
2023/01/14 05:40:17;;;;;;;0.20;0.20;;;6.50;99.90;;;;;;5047993;28;20273;-84
2023/01/14 05:45:48;;;;;;;0.20;0.20;;;6.40;99.90;;;;;;5050143;28;20267;-84
2023/01/14 05:48:15;;;;;;;0.30;0.30;;;6.40;99.90;;;;;;5051584;28;20433;-83
2023/01/14 05:50:41;;;;;;;0.30;0.30;;;6.40;99.90;;;;;;5046595;28;20450;-83
2023/01/14 05:53:07;;;;;;;0.30;0.30;;;6.40;99.90;;;;;;5037919;28;20463;-83
2023/01/14 05:55:34;;;;;;;0.20;0.20;;;6.50;99.90;;;;;;5049400;28;20217;-83
2023/01/14 05:58:01;;;;;;;0.20;0.20;;;6.50;99.90;;;;;;5050543;28;20453;-84
2023/01/14 06:08:36;;;;;;;0.20;0.20;;;6.50;99.90;;;;;;5043012;28;20453;-84
2023/01/14 06:11:02;;;;;;;0.20;0.20;;;6.40;99.90;;;;;;5047598;28;20494;-83
2023/01/14 06:13:27;;;;;;;0.30;0.30;;;6.30;99.90;;;;;;5026016;28;20274;-82
2023/01/14 06:15:55;;;;;;;0.30;0.30;;;6.40;99.90;;;;;;5046996;28;20278;-84
2023/01/14 06:18:22;;;;;;;0.30;0.30;;;6.30;99.90;;;;;;5045363;28;20772;-83
2023/01/14 06:20:53;;;;;;;0.30;0.30;;;6.30;99.90;;;;;;5041480;28;20545;-83
2023/01/14 06:23:21;;;;;;;0.30;0.30;;;6.30;99.90;;;;;;5035488;28;20972;-84
2023/01/14 06:25:48;;;;;;;0.30;0.30;;;6.30;99.90;;;;;;5049046;28;20785;-83
2023/01/14 06:28:14;;;;;;;0.20;0.20;;;6.30;99.90;;;;;;5047680;28;20491;-84
2023/01/14 06:30:41;;;;;;;0.20;0.20;;;6.30;99.90;;;;;;5044378;28;20848;-83
2023/01/14 06:33:07;;;;;;;0.23;0.23;;;6.30;99.90;;;;;;5048435;28;20429;-85
2023/01/14 06:35:34;;;;;;;0.30;0.30;;;6.30;99.90;;;;;;5048505;28;20515;-84
2023/01/14 06:37:59;;;;;;;0.30;0.30;;;6.30;99.90;;;;;;5028985;28;20457;-84
2023/01/14 06:40:25;;;;;;;0.30;0.30;;;6.30;99.90;;;;;;5052081;28;20422;-83
2023/01/14 06:42:54;;;;;;;0.30;0.30;;;6.30;99.90;;;;;;5047584;28;20194;-84
2023/01/14 06:45:19;;;;;;;0.30;0.30;;;6.30;99.90;;;;;;5043239;28;20203;-84
2023/01/14 06:47:45;;;;;;;0.20;0.20;;;6.30;99.90;;;;;;5030216;28;20531;-84
2023/01/14 06:50:10;;;;;;;0.20;0.20;;;6.30;99.90;;;;;;5043906;28;20195;-83
2023/01/14 06:52:36;;;;;;;0.20;0.20;;;6.40;99.90;;;;;;5028316;28;20223;-84
2023/01/14 06:55:01;;;;;;;0.30;0.30;;;6.40;99.90;;;;;;5049657;28;20266;-83
2023/01/14 06:57:27;;;;;;;0.30;0.30;;;6.40;99.90;;;;;;5048909;28;20281;-83
2023/01/14 06:59:53;;;;;;;0.30;0.30;;;6.40;99.90;;;;;;5038157;28;20195;-84
2023/01/14 07:02:18;;;;;;;0.20;0.20;;;6.40;99.90;;;;;;5045661;28;20191;-82
2023/01/14 07:04:44;;;;;;;0.20;0.20;;;6.40;99.90;;;;;;5045246;28;20219;-82
2023/01/14 07:07:10;;;;;;;0.20;0.20;;;6.50;99.90;;;;;;5049592;28;20183;-82
2023/01/14 07:09:36;;;;;;;0.30;0.30;;;6.50;99.90;;;;;;5047516;28;20277;-81
2023/01/14 07:12:02;;;;;;;0.30;0.30;;;6.40;99.90;;;;;;5031957;28;20541;-81
2023/01/14 07:14:28;;;;;;;0.30;0.30;;;6.50;99.90;;;;;;5049337;28;20248;-81
2023/01/14 07:16:53;;;;;;;0.30;0.30;;;6.40;99.90;;;;;;5028557;28;20485;-82
2023/01/14 07:19:18;;;;;;;0.30;0.30;;;6.40;99.90;;;;;;5027521;28;20266;-81
2023/01/14 07:21:44;;;;;;;0.20;0.20;;;6.40;99.90;;;;;;5032752;28;20190;-80
2023/01/14 07:24:10;;;;;;;0.20;0.20;;;6.40;99.90;;;;;;5023937;28;20201;-82
2023/01/14 07:26:37;;;;;;;0.30;0.30;;;6.40;99.90;;;;;;5037790;28;20643;-82
2023/01/14 07:29:03;;;;;;;0.30;0.30;;;6.40;99.90;;;;;;5038624;28;20944;-81
2023/01/14 07:31:29;;;;;;;0.30;0.30;;;6.40;99.90;;;;;;5047058;28;20445;-83
2023/01/14 07:33:54;;;;;;;0.30;0.30;;;6.40;99.90;;;;;;5029131;28;20278;-84
2023/01/14 07:36:20;;;;;;;0.30;0.30;;;6.40;99.90;;;;;;5040987;28;20569;-84
2023/01/14 07:38:45;;;;;;;0.30;0.30;;;6.40;99.90;;;;;;5044945;28;20187;-81
2023/01/14 07:41:13;;;;;;;0.30;0.30;;;6.40;99.90;;;;;;5044837;28;20182;-81
2023/01/14 07:43:38;;;;;;;0.30;0.30;;;6.40;99.90;;;;;;5031332;28;20186;-81
2023/01/14 07:46:06;;;;;;;0.27;0.27;;;6.50;99.90;;;;;;5046239;28;20459;-81
2023/01/14 07:48:32;;;;;;;0.27;0.27;;;6.40;99.90;;;;;;5046516;28;20179;-82
2023/01/14 07:51:01;;;;;;;0.30;0.30;;;6.50;99.90;;;;;;5049301;28;20453;-82
2023/01/14 07:53:26;;;;;;;0.30;0.30;;;6.50;99.90;;;;;;5030979;28;20182;-85
2023/01/14 07:55:52;;;;;;;0.23;0.23;;;6.50;99.90;;;;;;5046727;28;20484;-83
2023/01/14 07:58:17;;;;;;;0.20;0.20;;;6.50;99.90;;;;;;5026982;28;20905;-81
2023/01/14 08:00:43;;;;;;;0.30;0.30;;;6.50;99.90;;;;;;5041255;28;20186;-81
2023/01/14 08:03:08;;;;;;;0.30;0.30;;;6.50;99.90;;;;;;5047493;28;20733;-81
2023/01/14 08:05:34;;;;;;;0.20;0.20;;;6.50;99.90;;;;;;5035165;28;20267;-81
2023/01/14 08:08:00;;;;;;;0.30;0.30;;;6.50;99.90;;;;;;5040713;28;20217;-81
2023/01/14 08:10:25;;;;;;;0.27;0.27;;;6.50;99.90;;;;;;5018627;28;20210;-81
2023/01/14 08:12:51;;;;;;;0.30;0.30;;;6.50;99.90;;;;;;5028923;28;20244;-84
2023/01/14 08:15:17;;;;;;;0.30;0.30;;;6.50;99.90;;;;;;5022591;28;20240;-83
2023/01/14 08:17:42;;;;;;;0.20;0.20;;;6.50;99.90;;;;;;5040408;28;20662;-84
2023/01/14 08:20:09;;;;;;;0.30;0.30;;;6.50;99.90;;;;;;5044423;28;20459;-84
2023/01/14 08:22:35;;;;;;;0.30;0.30;;;6.50;99.90;;;;;;5047336;28;20179;-84
2023/01/14 08:25:01;;;;;;;0.30;0.30;;;6.50;99.90;;;;;;5044653;28;20429;-83
2023/01/14 08:27:27;;;;;;;0.30;0.30;;;6.50;99.90;;;;;;5045453;28;20266;-84
2023/01/14 08:29:53;;;;;;;0.30;0.30;;;6.50;99.90;;;;;;5033725;28;20189;-83
2023/01/14 08:32:18;;;;;;;0.30;0.30;;;6.50;99.90;;;;;;5039270;28;20449;-84
2023/01/14 08:34:44;;;;;;;0.30;0.30;;;6.40;99.90;;;;;;5025968;28;20634;-83
2023/01/14 08:37:09;;;;;;;0.30;0.30;;;6.40;99.90;;;;;;5040551;28;20228;-83
2023/01/14 08:39:35;;;;;;;0.30;0.30;;;6.40;99.90;;;;;;5046071;28;20244;-83
2023/01/14 08:42:00;;;;;;;0.30;0.30;;;6.40;99.90;;;;;;5050428;28;20431;-81
2023/01/14 08:44:26;;;;;;;0.30;0.30;;;6.40;99.90;;;;;;5047476;28;20183;-81
2023/01/14 08:46:51;;;;;;;0.30;0.30;;;6.40;99.90;;;;;;5042677;28;20276;-80
2023/01/14 08:49:17;;;;;;;0.30;0.30;;;6.40;99.90;;;;;;5040780;28;20187;-81
2023/01/14 08:51:42;;;;;;;0.30;0.30;;;6.40;99.90;;;;;;5024411;28;20178;-80
2023/01/14 08:54:08;;;;;;;0.30;0.30;;;6.40;99.90;;;;;;5042737;28;20183;-81
2023/01/14 08:56:34;;;;;;;0.30;0.30;;;6.40;99.90;;;;;;5042271;28;20769;-81
2023/01/14 08:59:00;;;;;;;0.23;0.23;;;6.40;99.90;;;;;;5045990;28;20244;-80
2023/01/14 09:01:26;;;;;;;0.23;0.23;;;6.40;99.90;;;;;;5034691;28;20196;-80
2023/01/14 09:03:53;;;;;;;0.30;0.30;;;6.40;99.90;;;;;;5028969;28;20432;-80
2023/01/14 09:06:18;;;;;;;0.30;0.30;;;6.40;99.90;;;;;;5044703;28;21001;-81
2023/01/14 09:17:05;;;;;;;0.20;0.20;;;6.50;99.90;;;;;;5051334;28;20511;-81
2023/01/14 09:19:46;;;;;;;0.30;0.30;;;6.50;99.90;;;;;;5048832;28;20449;-81
2023/01/14 09:22:15;;;;;;;0.30;0.30;;;6.40;99.90;;;;;;5051042;28;20968;-81
2023/01/14 09:24:40;;;;;;;0.20;0.20;;;6.40;99.90;;;;;;5051622;28;20815;-80
2023/01/14 09:27:06;;;;;;;0.30;0.30;;;6.40;99.90;;;;;;5043123;28;20440;-81
2023/01/14 09:29:32;;;;;;;0.30;0.30;;;6.40;99.90;;;;;;5032729;28;20853;-81
2023/01/14 09:31:57;;;;;;;0.30;0.30;;;6.40;99.90;;;;;;5027661;28;20198;-81
2023/01/14 09:34:23;;;;;;;0.27;0.27;;;6.40;99.90;;;;;;5053305;28;20437;-81
2023/01/14 09:36:49;;;;;;;0.30;0.30;;;6.40;99.90;;;;;;5033762;28;20271;-82
2023/01/14 09:39:15;;;;;;;0.30;0.30;;;6.30;99.90;;;;;;5053507;28;20189;-82
2023/01/14 09:41:50;;;;;;;0.30;0.30;;;6.30;99.90;;;;;;5047307;28;20490;-83
2023/01/14 09:44:16;;;;;;;0.20;0.20;;;6.30;99.90;;;;;;5053388;28;20437;-83
2023/01/14 09:46:42;;;;;;;0.30;0.30;;;6.30;99.90;;;;;;5050714;28;20481;-83
2023/01/14 09:49:13;;;;;;;0.30;0.30;;;6.30;99.90;;;;;;5050996;28;20549;-83
2023/01/14 09:52:08;;;;;;;0.30;0.30;;;6.30;99.90;;;;;;5051594;28;20272;-83
2023/01/14 09:54:54;;;;;;;0.30;0.30;;;6.30;99.90;;;;;;5041930;28;20448;-83
2023/01/14 09:57:42;;;;;;;0.30;0.30;;;6.30;99.90;;;;;;5039110;28;20546;-83
2023/01/14 10:00:11;;;;;;;0.30;0.30;;;6.30;99.90;;;;;;5051230;28;20456;-82
2023/01/14 10:02:48;;;;;;;0.30;0.30;;;6.30;99.90;;;;;;5045853;28;20444;-83
2023/01/14 10:05:27;;;;;;;0.30;0.30;;;6.30;99.90;;;;;;5049441;28;20475;-83
2023/01/14 10:07:53;;;;;;;0.30;0.30;;;6.30;99.90;;;;;;5018723;28;20564;-83
2023/01/14 10:10:41;;;;;;;0.30;0.30;;;6.30;99.90;;;;;;5043793;28;21277;-84
2023/01/14 10:13:14;;;;;;;0.30;0.30;;;6.30;99.90;;;;;;5049836;28;20616;-85
2023/01/14 10:15:51;;;;;;;0.20;0.20;;;6.30;99.90;;;;;;5043071;28;20473;-83
2023/01/14 10:18:28;;;;;;;0.30;0.30;;;6.30;99.90;;;;;;5045713;28;20444;-84
2023/01/14 10:20:54;;;;;;;0.30;0.30;;;6.30;99.90;;;;;;5047841;28;20445;-84
2023/01/14 10:23:26;;;;;;;0.20;0.20;;;6.30;99.90;;;;;;5047984;28;20445;-84
2023/01/14 10:25:54;;;;;;;0.30;0.30;;;6.30;99.90;;;;;;5042442;28;20190;-85
2023/01/14 10:28:24;;;;;;;0.30;0.30;;;6.30;99.90;;;;;;5046678;28;20449;-83
2023/01/14 10:30:50;;;;;;;0.30;0.30;;;6.30;99.90;;;;;;5031575;28;20519;-83
2023/01/14 10:33:19;;;;;;;0.30;0.30;;;6.30;99.90;;;;;;5040154;28;20537;-83
2023/01/14 10:35:52;;;;;;;0.30;0.30;;;6.30;99.90;;;;;;5046116;28;20476;-81
2023/01/14 10:38:24;;;;;;;0.30;0.30;;;6.30;99.90;;;;;;5046195;28;20456;-81
2023/01/14 10:40:52;;;;;;;0.30;0.30;;;6.30;99.90;;;;;;5026174;28;20448;-81
2023/01/14 10:43:37;;;;;;;0.30;0.30;;;6.30;99.90;;;;;;5046515;28;20944;-81
2023/01/14 10:46:02;;;;;;;0.20;0.20;;;6.30;99.90;;;;;;5046949;28;20854;-81
2023/01/14 10:48:44;;;;;;;0.20;0.20;;;6.30;99.90;;;;;;5043850;28;20449;-81
2023/01/14 10:51:37;;;;;;;0.30;0.30;;;6.30;99.90;;;;;;5048224;28;20233;-83
2023/01/14 10:54:25;;;;;;;0.30;0.30;;;6.30;99.90;;;;;;5043951;28;20467;-81
2023/01/14 10:57:16;;;;;;;0.30;0.30;;;6.30;99.90;;;;;;5037206;28;21563;-81
2023/01/14 10:59:48;;;;;;;0.30;0.30;;;6.30;99.90;;;;;;5031435;28;20532;-82
2023/01/14 11:02:33;;;;;;;0.30;0.30;;;6.30;99.90;;;;;;5045684;28;20471;-82
2023/01/14 11:05:00;;;;;;;0.30;0.30;;;6.30;99.90;;;;;;5045545;28;20851;-82
2023/01/14 11:07:33;;;;;;;0.20;0.20;;;6.30;99.90;;;;;;5049572;28;20531;-81
2023/01/14 11:10:01;;;;;;;0.30;0.30;;;6.30;99.90;;;;;;5029288;28;20422;-82
2023/01/14 11:12:30;;;;;;;0.30;0.30;;;6.30;99.90;;;;;;5031475;28;20447;-81
2023/01/14 11:14:56;;;;;;;0.30;0.30;;;6.30;99.90;;;;;;5027835;28;20444;-81
2023/01/14 11:17:25;;;;;;;0.30;0.30;;;6.30;99.90;;;;;;5047346;28;20481;-82
2023/01/14 11:19:51;;;;;;;0.30;0.30;;;6.30;99.90;;;;;;5045881;28;20437;-80
2023/01/14 11:22:18;;;;;;;0.30;0.30;;;6.30;99.90;;;;;;5029228;28;20445;-82
2023/01/14 11:24:46;;;;;;;0.30;0.30;;;6.30;99.90;;;;;;5029137;28;20433;-82
2023/01/14 11:27:24;;;;;;;0.30;0.30;;;6.40;99.90;;;;;;5043578;28;20449;-81
2023/01/14 11:29:58;;;;;;;0.20;0.20;;;6.40;99.90;;;;;;5050907;28;20435;-83
2023/01/14 11:32:27;;;;;;;0.30;0.30;;;6.40;99.90;;;;;;5051799;28;20448;-84
2023/01/14 11:35:23;;;;;;;0.30;0.30;;;6.40;99.90;;;;;;5028976;28;20809;-82
2023/01/14 11:37:49;;;;;;;0.20;0.20;;;6.40;99.90;;;;;;5038251;28;20607;-83
2023/01/14 11:41:28;;;;;;;0.30;0.30;;;6.40;99.90;;;;;;5045871;28;20617;-84
2023/01/14 11:43:13;;;;;;;0.30;0.30;;;6.40;99.90;;;;;;5046942;28;20460;-87
2023/01/14 11:45:38;;;;;;;0.30;0.30;;;6.40;99.90;;;;;;5048534;28;20488;-84
2023/01/14 11:48:23;;;;;;;0.30;0.30;;;6.40;99.90;;;;;;5044768;28;20898;-85
2023/01/14 11:51:00;;;;;;;0.30;0.30;;;6.40;99.90;;;;;;5028724;28;20203;-85
2023/01/14 11:53:50;;;;;;;0.30;0.30;;;6.50;99.90;;;;;;5050051;28;20448;-86
2023/01/14 11:56:27;;;;;;;0.30;0.30;;;6.50;99.90;;;;;;5047831;28;20477;-86
2023/01/14 11:58:53;;;;;;;0.30;0.30;;;6.50;99.90;;;;;;5048922;28;20806;-85
2023/01/14 12:01:28;;;;;;;0.20;0.20;;;6.50;99.90;;;;;;5046723;28;20453;-86
2023/01/14 12:04:08;;;;;;;0.20;0.20;;;6.50;99.90;;;;;;5048156;28;20182;-85
2023/01/14 12:06:54;;;;;;;0.30;0.30;;;6.50;99.90;;;;;;5048106;28;20539;-84
2023/01/14 12:09:27;;;;;;;0.30;0.30;;;6.50;99.90;;;;;;5049852;28;20447;-86
2023/01/14 12:12:01;;;;;;;0.30;0.30;;;6.50;99.90;;;;;;5049547;28;20547;-85
2023/01/14 12:17:33;;;;;;;0.30;0.30;;;6.50;99.90;;;;;;5043905;28;20515;-85
2023/01/14 12:20:05;;;;;;;0.30;0.30;;;6.50;99.90;;;;;;5043807;28;20449;-85
2023/01/14 12:22:55;;;;;;;0.30;0.30;;;6.60;99.90;;;;;;5042246;28;20444;-86
2023/01/14 12:25:28;;;;;;;0.30;0.30;;;6.60;99.90;;;;;;5045601;28;20532;-86
2023/01/14 12:28:09;;;;;;;0.30;0.30;;;6.60;99.90;;;;;;5046197;28;20457;-86
2023/01/14 12:30:40;;;;;;;0.30;0.30;;;6.60;99.90;;;;;;5029056;28;21321;-87
2023/01/14 12:33:09;;;;;;;0.30;0.30;;;6.50;99.90;;;;;;5047680;28;20487;-86
2023/01/14 12:35:45;;;;;;;0.30;0.30;;;6.50;99.90;;;;;;5025632;28;20446;-86
2023/01/14 12:46:39;;;;;;;0.30;0.30;;;6.30;99.90;;;;;;5043998;28;20444;-81
2023/01/14 12:49:05;;;;;;;0.30;0.30;;;6.30;99.90;;;;;;5030578;28;20441;-82
2023/01/14 12:51:33;;;;;;;0.30;0.30;;;6.30;99.90;;;;;;5047624;28;20190;-82
2023/01/14 12:54:02;;;;;;;0.30;0.30;;;6.20;99.90;;;;;;5030014;28;21153;-81
2023/01/14 12:56:31;;;;;;;0.30;0.30;;;6.20;99.90;;;;;;5048958;28;20491;-82
2023/01/14 12:59:08;;;;;;;0.23;0.23;;;6.20;99.90;;;;;;5043113;28;20433;-82
2023/01/14 13:01:56;;;;;;;0.30;0.30;;;6.10;99.90;;;;;;5044017;28;20457;-82
2023/01/14 13:04:27;;;;;;;0.20;0.20;;;6.10;99.90;;;;;;5037993;28;20455;-82
2023/01/14 13:06:59;;;;;;;0.30;0.30;;;6.10;99.90;;;;;;5045810;28;20457;-83
2023/01/14 13:09:47;;;;;;;0.30;0.30;;;6.00;99.90;;;;;;5045211;28;20433;-83
2023/01/14 13:12:32;;;;;;;0.30;0.30;;;6.00;99.90;;;;;;5027286;28;20445;-83
2023/01/14 13:15:06;;;;;;;0.27;0.27;;;5.90;99.90;;;;;;5036339;28;20445;-84
2023/01/14 13:17:37;;;;;;;0.30;0.30;;;5.90;99.90;;;;;;5040788;28;20511;-93
2023/01/14 13:20:32;;;;;;;0.30;0.30;;;5.80;99.90;;;;;;5039770;28;20853;-81
2023/01/14 13:22:59;;;;;;;0.30;0.30;;;5.80;99.90;;;;;;5043093;28;20443;-84
2023/01/14 13:25:41;;;;;;;0.30;0.30;;;5.80;99.90;;;;;;5024578;28;20862;-86
2023/01/14 13:28:10;;;;;;;0.30;0.30;;;5.80;99.90;;;;;;5027948;28;20459;-85
2023/01/14 13:30:46;;;;;;;0.30;0.30;;;5.80;99.90;;;;;;5046753;28;20461;-86
2023/01/14 13:33:32;;;;;;;0.30;0.30;;;5.70;99.90;;;;;;5044322;28;20445;-85
2023/01/14 13:36:10;;;;;;;0.30;0.30;;;5.70;99.90;;;;;;5034761;28;20522;-85
2023/01/14 13:38:42;;;;;;;0.23;0.23;;;5.70;99.90;;;;;;5021460;28;20453;-84
2023/01/14 13:41:10;;;;;;;0.30;0.30;;;5.70;99.90;;;;;;5048251;28;20421;-85
2023/01/14 13:43:47;;;;;;;0.30;0.30;;;5.60;99.90;;;;;;5048072;28;20488;-84
2023/01/14 13:46:22;;;;;;;0.30;0.30;;;5.60;99.90;;;;;;5036929;28;20456;-85
2023/01/14 13:48:52;;;;;;;0.30;0.30;;;5.60;99.90;;;;;;5045965;28;20444;-85
2023/01/14 13:51:38;;;;;;;0.30;0.30;;;5.60;99.90;;;;;;5036667;28;20447;-85
2023/01/14 13:54:18;;;;;;;0.30;0.30;;;5.60;99.90;;;;;;5037820;28;20456;-87